Lojt Kirkeby, Denmark
Current Conditions -  °F | °C
As of 7:20 PM on Thursday 18 Dec 2014 (Local Time) from EKSP Reporting Station
Light Rain Light Rain  
Wind Chill: 50°   Ceiling: 400
Heat Index: 50°   Visibility: 1.1mi
Dew Point: 48°   Wind: 23mph
Humidity: 94%   Direction: 240°WSW
Pressure: 29.41"   Gusts: NA
Location:  55.08°N, 9.47°E
Report Text: EKSP 181820Z 24020KT 1800 -RA BR BKN004 10/09 Q0996
Loading
Personal Weather Stations






























Interactive Weather Map New forecast layout! Learn more

10-Day Weather Forecast

Advertisements
Track Severe Weather on mobile